< < Back
Terminal Aerodrome Forecast


Current Version              Previous Versions:   1  2  3  4  5  6  7  8  9  

Terminal Aerodrome Forecast

044
FTUS42 KCAE 272322
TAFCAE
TAF
KCAE 272322Z 2800/2824 VRB03KT P6SM SCT200
     FM280900 00000KT P6SM SCT015
     FM281400 VRB04KT P6SM SCT030
     FM281900 06005KT P6SM SCT040=

Latest METAR

043
SAUS80 KWBC 280100
MTRCAE
METAR KCAE 280056Z 15003KT 10SM FEW075 SCT200 33/19 A2993 RMK AO2 SLP131
T03280189


USA.gov is the U.S. government's official web portal to all federal, state and local government web resources and services.